Terminal Aerodrome Forecast
Issued by NWS

Home | Current Version | Previous Version | Graphics & Text | Print | Product List | Glossary On
Versions: 1 2 3 4 5 6 7 8 9 10 11 12 13 14 15 16 17 18 19 20 21 22 23 24
685
FTUS43 KBIS 271354 AAA
TAFMOT
TAF AMD
KMOT 271354Z 2714/2812 25011KT P6SM SCT200
     FM271700 27015G23KT P6SM SCT120
     FM272000 28018G27KT P6SM -SHRA VCTS BKN080CB
     FM280000 31016G25KT P6SM BKN100
     FM280400 29006KT P6SM SCT200=

USA.gov is the U.S. government's official web portal to all federal, state and local government web resources and services.